sensor_id;sensor_type;location;lat;lon;timestamp;P1;durP1;ratioP1;P2;durP2;ratioP2
19111;SDS011;9688;51.906;8.376;2024-02-21T00:00:21;23.77;;;11.13;;
19111;SDS011;9688;51.906;8.376;2024-02-21T00:03:08;31.30;;;12.17;;
19111;SDS011;9688;51.906;8.376;2024-02-21T00:05:53;24.67;;;11.53;;
19111;SDS011;9688;51.906;8.376;2024-02-21T00:08:38;29.47;;;11.43;;
19111;SDS011;9688;51.906;8.376;2024-02-21T00:11:23;33.47;;;12.27;;
19111;SDS011;9688;51.906;8.376;2024-02-21T00:14:09;31.20;;;13.40;;
19111;SDS011;9688;51.906;8.376;2024-02-21T00:16:54;29.13;;;12.20;;
19111;SDS011;9688;51.906;8.376;2024-02-21T00:19:41;32.17;;;12.73;;
19111;SDS011;9688;51.906;8.376;2024-02-21T00:22:26;29.00;;;12.03;;
19111;SDS011;9688;51.906;8.376;2024-02-21T00:25:15;34.40;;;11.90;;
19111;SDS011;9688;51.906;8.376;2024-02-21T00:28:00;27.03;;;11.37;;
19111;SDS011;9688;51.906;8.376;2024-02-21T00:30:46;24.93;;;12.23;;
19111;SDS011;9688;51.906;8.376;2024-02-21T00:33:32;27.20;;;11.70;;
19111;SDS011;9688;51.906;8.376;2024-02-21T00:36:19;27.57;;;11.47;;
19111;SDS011;9688;51.906;8.376;2024-02-21T00:39:04;32.63;;;11.77;;
19111;SDS011;9688;51.906;8.376;2024-02-21T00:41:50;25.23;;;11.27;;
19111;SDS011;9688;51.906;8.376;2024-02-21T00:44:35;25.67;;;11.47;;
19111;SDS011;9688;51.906;8.376;2024-02-21T00:47:20;30.67;;;11.27;;
19111;SDS011;9688;51.906;8.376;2024-02-21T00:50:06;26.83;;;11.40;;
19111;SDS011;9688;51.906;8.376;2024-02-21T00:52:54;27.00;;;11.53;;
19111;SDS011;9688;51.906;8.376;2024-02-21T00:55:39;28.77;;;11.37;;
19111;SDS011;9688;51.906;8.376;2024-02-21T00:58:26;28.00;;;11.93;;
19111;SDS011;9688;51.906;8.376;2024-02-21T01:01:12;24.30;;;11.37;;
19111;SDS011;9688;51.906;8.376;2024-02-21T01:03:57;37.23;;;11.67;;
19111;SDS011;9688;51.906;8.376;2024-02-21T01:06:42;29.13;;;12.23;;
19111;SDS011;9688;51.906;8.376;2024-02-21T01:09:29;27.93;;;11.13;;
19111;SDS011;9688;51.906;8.376;2024-02-21T01:12:14;31.53;;;11.77;;
19111;SDS011;9688;51.906;8.376;2024-02-21T01:14:59;28.63;;;11.10;;
19111;SDS011;9688;51.906;8.376;2024-02-21T01:17:45;30.57;;;12.23;;
19111;SDS011;9688;51.906;8.376;2024-02-21T01:20:30;29.90;;;11.30;;
19111;SDS011;9688;51.906;8.376;2024-02-21T01:23:15;21.57;;;10.60;;
19111;SDS011;9688;51.906;8.376;2024-02-21T01:26:02;27.03;;;11.40;;
19111;SDS011;9688;51.906;8.376;2024-02-21T01:28:48;28.47;;;11.17;;
19111;SDS011;9688;51.906;8.376;2024-02-21T01:31:33;30.10;;;11.33;;
19111;SDS011;9688;51.906;8.376;2024-02-21T01:34:19;25.90;;;10.80;;
19111;SDS011;9688;51.906;8.376;2024-02-21T01:37:05;30.40;;;11.37;;
19111;SDS011;9688;51.906;8.376;2024-02-21T01:39:51;28.37;;;11.37;;
19111;SDS011;9688;51.906;8.376;2024-02-21T01:42:39;27.03;;;10.97;;
19111;SDS011;9688;51.906;8.376;2024-02-21T01:45:24;28.80;;;12.07;;
19111;SDS011;9688;51.906;8.376;2024-02-21T01:48:09;27.67;;;11.07;;
19111;SDS011;9688;51.906;8.376;2024-02-21T01:50:55;33.63;;;12.03;;
19111;SDS011;9688;51.906;8.376;2024-02-21T01:53:42;25.80;;;11.43;;
19111;SDS011;9688;51.906;8.376;2024-02-21T01:56:29;32.60;;;11.80;;
19111;SDS011;9688;51.906;8.376;2024-02-21T01:59:16;32.33;;;12.37;;
19111;SDS011;9688;51.906;8.376;2024-02-21T02:02:03;28.07;;;12.10;;
19111;SDS011;9688;51.906;8.376;2024-02-21T02:04:50;26.73;;;11.47;;
19111;SDS011;9688;51.906;8.376;2024-02-21T02:07:37;24.17;;;11.67;;
19111;SDS011;9688;51.906;8.376;2024-02-21T02:10:22;29.27;;;11.43;;
19111;SDS011;9688;51.906;8.376;2024-02-21T02:13:07;28.23;;;12.23;;
19111;SDS011;9688;51.906;8.376;2024-02-21T02:15:54;26.50;;;11.73;;
19111;SDS011;9688;51.906;8.376;2024-02-21T02:18:40;36.23;;;12.07;;
19111;SDS011;9688;51.906;8.376;2024-02-21T02:21:27;23.10;;;11.90;;
19111;SDS011;9688;51.906;8.376;2024-02-21T02:24:16;31.53;;;12.27;;
19111;SDS011;9688;51.906;8.376;2024-02-21T02:27:02;28.93;;;12.13;;
19111;SDS011;9688;51.906;8.376;2024-02-21T02:29:48;34.83;;;12.37;;
19111;SDS011;9688;51.906;8.376;2024-02-21T02:32:33;29.37;;;12.90;;
19111;SDS011;9688;51.906;8.376;2024-02-21T02:35:18;28.67;;;11.87;;
19111;SDS011;9688;51.906;8.376;2024-02-21T02:38:04;29.30;;;11.77;;
19111;SDS011;9688;51.906;8.376;2024-02-21T02:40:51;27.03;;;11.73;;
19111;SDS011;9688;51.906;8.376;2024-02-21T02:43:36;26.17;;;12.00;;
19111;SDS011;9688;51.906;8.376;2024-02-21T02:46:21;23.90;;;11.33;;
19111;SDS011;9688;51.906;8.376;2024-02-21T02:49:07;28.33;;;12.10;;
19111;SDS011;9688;51.906;8.376;2024-02-21T02:51:52;29.27;;;12.10;;
19111;SDS011;9688;51.906;8.376;2024-02-21T02:54:37;26.57;;;11.70;;
19111;SDS011;9688;51.906;8.376;2024-02-21T02:57:24;25.33;;;11.30;;
19111;SDS011;9688;51.906;8.376;2024-02-21T03:00:10;25.47;;;10.53;;
19111;SDS011;9688;51.906;8.376;2024-02-21T03:02:56;27.40;;;11.07;;
19111;SDS011;9688;51.906;8.376;2024-02-21T03:05:42;23.77;;;10.90;;
19111;SDS011;9688;51.906;8.376;2024-02-21T03:08:27;29.53;;;11.00;;
19111;SDS011;9688;51.906;8.376;2024-02-21T03:11:12;25.97;;;10.80;;
19111;SDS011;9688;51.906;8.376;2024-02-21T03:14:00;19.07;;;10.00;;
19111;SDS011;9688;51.906;8.376;2024-02-21T03:16:45;25.73;;;11.20;;
19111;SDS011;9688;51.906;8.376;2024-02-21T03:19:30;25.23;;;10.87;;
19111;SDS011;9688;51.906;8.376;2024-02-21T03:22:18;24.57;;;10.43;;
19111;SDS011;9688;51.906;8.376;2024-02-21T03:25:03;23.03;;;10.07;;
19111;SDS011;9688;51.906;8.376;2024-02-21T03:27:50;25.60;;;10.03;;
19111;SDS011;9688;51.906;8.376;2024-02-21T03:30:36;21.67;;;10.20;;
19111;SDS011;9688;51.906;8.376;2024-02-21T03:33:21;27.40;;;11.00;;
19111;SDS011;9688;51.906;8.376;2024-02-21T03:36:12;16.77;;;9.43;;
19111;SDS011;9688;51.906;8.376;2024-02-21T03:38:58;28.30;;;10.17;;
19111;SDS011;9688;51.906;8.376;2024-02-21T03:41:43;21.60;;;9.60;;
19111;SDS011;9688;51.906;8.376;2024-02-21T03:44:28;29.67;;;11.10;;
19111;SDS011;9688;51.906;8.376;2024-02-21T03:47:15;24.07;;;9.73;;
19111;SDS011;9688;51.906;8.376;2024-02-21T03:50:00;22.53;;;9.80;;
19111;SDS011;9688;51.906;8.376;2024-02-21T03:52:46;25.87;;;10.57;;
19111;SDS011;9688;51.906;8.376;2024-02-21T03:55:31;21.90;;;9.97;;
19111;SDS011;9688;51.906;8.376;2024-02-21T03:58:16;21.50;;;10.70;;
19111;SDS011;9688;51.906;8.376;2024-02-21T04:01:02;28.97;;;10.70;;
19111;SDS011;9688;51.906;8.376;2024-02-21T04:03:49;23.63;;;10.17;;
19111;SDS011;9688;51.906;8.376;2024-02-21T04:06:34;18.83;;;9.37;;
19111;SDS011;9688;51.906;8.376;2024-02-21T04:09:20;24.90;;;10.57;;
19111;SDS011;9688;51.906;8.376;2024-02-21T04:12:07;20.07;;;8.73;;
19111;SDS011;9688;51.906;8.376;2024-02-21T04:14:54;24.23;;;9.47;;
19111;SDS011;9688;51.906;8.376;2024-02-21T04:17:39;24.53;;;9.40;;
19111;SDS011;9688;51.906;8.376;2024-02-21T04:20:25;19.07;;;9.17;;
19111;SDS011;9688;51.906;8.376;2024-02-21T04:23:11;23.07;;;10.23;;
19111;SDS011;9688;51.906;8.376;2024-02-21T04:25:56;25.40;;;9.37;;
19111;SDS011;9688;51.906;8.376;2024-02-21T04:28:41;23.03;;;10.07;;
19111;SDS011;9688;51.906;8.376;2024-02-21T04:31:28;21.00;;;8.97;;
19111;SDS011;9688;51.906;8.376;2024-02-21T04:34:13;20.57;;;9.30;;
19111;SDS011;9688;51.906;8.376;2024-02-21T04:37:00;18.53;;;9.20;;
19111;SDS011;9688;51.906;8.376;2024-02-21T04:39:45;23.13;;;9.23;;
19111;SDS011;9688;51.906;8.376;2024-02-21T04:42:31;22.43;;;9.37;;
19111;SDS011;9688;51.906;8.376;2024-02-21T04:45:16;20.63;;;8.43;;
19111;SDS011;9688;51.906;8.376;2024-02-21T04:48:02;24.73;;;9.70;;
19111;SDS011;9688;51.906;8.376;2024-02-21T04:50:47;17.97;;;9.90;;
19111;SDS011;9688;51.906;8.376;2024-02-21T04:53:34;19.77;;;8.63;;
19111;SDS011;9688;51.906;8.376;2024-02-21T04:56:20;25.73;;;9.80;;
19111;SDS011;9688;51.906;8.376;2024-02-21T04:59:05;20.90;;;9.40;;
19111;SDS011;9688;51.906;8.376;2024-02-21T05:01:50;24.33;;;9.30;;
19111;SDS011;9688;51.906;8.376;2024-02-21T05:04:35;22.43;;;9.90;;
19111;SDS011;9688;51.906;8.376;2024-02-21T05:07:22;20.03;;;10.03;;
19111;SDS011;9688;51.906;8.376;2024-02-21T05:10:09;16.70;;;8.80;;
19111;SDS011;9688;51.906;8.376;2024-02-21T05:12:54;20.30;;;9.27;;
19111;SDS011;9688;51.906;8.376;2024-02-21T05:15:39;21.47;;;10.23;;
19111;SDS011;9688;51.906;8.376;2024-02-21T05:18:25;23.80;;;9.90;;
19111;SDS011;9688;51.906;8.376;2024-02-21T05:21:10;24.30;;;10.60;;
19111;SDS011;9688;51.906;8.376;2024-02-21T05:23:56;25.40;;;10.67;;
19111;SDS011;9688;51.906;8.376;2024-02-21T05:26:42;23.80;;;10.27;;
19111;SDS011;9688;51.906;8.376;2024-02-21T05:29:28;22.57;;;11.03;;
19111;SDS011;9688;51.906;8.376;2024-02-21T05:32:13;23.50;;;9.90;;
19111;SDS011;9688;51.906;8.376;2024-02-21T05:34:58;24.60;;;11.50;;
19111;SDS011;9688;51.906;8.376;2024-02-21T05:37:43;28.20;;;11.23;;
19111;SDS011;9688;51.906;8.376;2024-02-21T05:40:30;27.10;;;11.37;;
19111;SDS011;9688;51.906;8.376;2024-02-21T05:43:16;21.93;;;10.97;;
19111;SDS011;9688;51.906;8.376;2024-02-21T05:46:02;24.47;;;11.13;;
19111;SDS011;9688;51.906;8.376;2024-02-21T05:48:47;22.83;;;11.57;;
19111;SDS011;9688;51.906;8.376;2024-02-21T05:51:33;24.90;;;11.77;;
19111;SDS011;9688;51.906;8.376;2024-02-21T05:54:18;30.10;;;11.73;;
19111;SDS011;9688;51.906;8.376;2024-02-21T05:57:03;31.00;;;12.90;;
19111;SDS011;9688;51.906;8.376;2024-02-21T05:59:50;28.70;;;12.00;;
19111;SDS011;9688;51.906;8.376;2024-02-21T06:02:35;30.00;;;12.73;;
19111;SDS011;9688;51.906;8.376;2024-02-21T06:05:20;25.13;;;11.60;;
19111;SDS011;9688;51.906;8.376;2024-02-21T06:08:06;21.23;;;12.13;;
19111;SDS011;9688;51.906;8.376;2024-02-21T06:10:52;29.03;;;12.10;;
19111;SDS011;9688;51.906;8.376;2024-02-21T06:13:38;27.97;;;11.53;;
19111;SDS011;9688;51.906;8.376;2024-02-21T06:16:25;26.80;;;10.40;;
19111;SDS011;9688;51.906;8.376;2024-02-21T06:19:10;22.60;;;9.80;;
19111;SDS011;9688;51.906;8.376;2024-02-21T06:21:56;23.23;;;10.77;;
19111;SDS011;9688;51.906;8.376;2024-02-21T06:24:41;21.40;;;9.37;;
19111;SDS011;9688;51.906;8.376;2024-02-21T06:27:26;24.33;;;9.50;;
19111;SDS011;9688;51.906;8.376;2024-02-21T06:30:12;17.77;;;8.13;;
19111;SDS011;9688;51.906;8.376;2024-02-21T06:32:59;19.10;;;8.23;;
19111;SDS011;9688;51.906;8.376;2024-02-21T06:35:46;17.90;;;8.20;;
19111;SDS011;9688;51.906;8.376;2024-02-21T06:38:31;21.70;;;8.47;;
19111;SDS011;9688;51.906;8.376;2024-02-21T06:41:17;14.97;;;7.97;;
19111;SDS011;9688;51.906;8.376;2024-02-21T06:44:04;18.93;;;8.60;;
19111;SDS011;9688;51.906;8.376;2024-02-21T06:46:50;18.67;;;7.47;;
19111;SDS011;9688;51.906;8.376;2024-02-21T06:49:38;20.33;;;7.80;;
19111;SDS011;9688;51.906;8.376;2024-02-21T06:52:24;14.00;;;7.40;;
19111;SDS011;9688;51.906;8.376;2024-02-21T06:55:10;19.83;;;7.17;;
19111;SDS011;9688;51.906;8.376;2024-02-21T06:57:56;13.97;;;6.87;;
19111;SDS011;9688;51.906;8.376;2024-02-21T07:00:42;22.70;;;7.43;;
19111;SDS011;9688;51.906;8.376;2024-02-21T07:03:27;21.87;;;7.83;;
19111;SDS011;9688;51.906;8.376;2024-02-21T07:06:14;21.07;;;7.10;;
19111;SDS011;9688;51.906;8.376;2024-02-21T07:08:59;12.80;;;6.40;;
19111;SDS011;9688;51.906;8.376;2024-02-21T07:11:44;17.53;;;6.77;;
19111;SDS011;9688;51.906;8.376;2024-02-21T07:14:30;15.90;;;6.60;;
19111;SDS011;9688;51.906;8.376;2024-02-21T07:17:17;13.43;;;6.13;;
19111;SDS011;9688;51.906;8.376;2024-02-21T07:20:02;19.60;;;6.67;;
19111;SDS011;9688;51.906;8.376;2024-02-21T07:22:49;15.50;;;6.60;;
19111;SDS011;9688;51.906;8.376;2024-02-21T07:25:35;16.53;;;7.30;;
19111;SDS011;9688;51.906;8.376;2024-02-21T07:28:20;18.23;;;6.43;;
19111;SDS011;9688;51.906;8.376;2024-02-21T07:31:06;14.63;;;6.30;;
19111;SDS011;9688;51.906;8.376;2024-02-21T07:33:51;16.80;;;6.70;;
19111;SDS011;9688;51.906;8.376;2024-02-21T07:36:36;17.80;;;6.73;;
19111;SDS011;9688;51.906;8.376;2024-02-21T07:39:25;18.23;;;6.10;;
19111;SDS011;9688;51.906;8.376;2024-02-21T07:42:11;12.73;;;6.40;;
19111;SDS011;9688;51.906;8.376;2024-02-21T07:44:56;15.83;;;6.43;;
19111;SDS011;9688;51.906;8.376;2024-02-21T07:47:43;15.50;;;6.03;;
19111;SDS011;9688;51.906;8.376;2024-02-21T07:50:29;15.90;;;6.33;;
19111;SDS011;9688;51.906;8.376;2024-02-21T07:53:14;14.93;;;6.73;;
19111;SDS011;9688;51.906;8.376;2024-02-21T07:56:01;14.43;;;6.37;;
19111;SDS011;9688;51.906;8.376;2024-02-21T07:58:47;18.50;;;6.57;;
19111;SDS011;9688;51.906;8.376;2024-02-21T08:01:32;13.17;;;5.80;;
19111;SDS011;9688;51.906;8.376;2024-02-21T08:04:18;13.67;;;5.90;;
19111;SDS011;9688;51.906;8.376;2024-02-21T08:07:04;18.80;;;6.10;;
19111;SDS011;9688;51.906;8.376;2024-02-21T08:09:49;14.67;;;5.57;;
19111;SDS011;9688;51.906;8.376;2024-02-21T08:12:36;13.80;;;5.93;;
19111;SDS011;9688;51.906;8.376;2024-02-21T08:15:21;19.03;;;6.23;;
19111;SDS011;9688;51.906;8.376;2024-02-21T08:18:12;15.77;;;5.73;;
19111;SDS011;9688;51.906;8.376;2024-02-21T08:20:57;15.47;;;6.23;;
19111;SDS011;9688;51.906;8.376;2024-02-21T08:23:42;9.83;;;5.80;;
19111;SDS011;9688;51.906;8.376;2024-02-21T08:26:28;12.67;;;6.13;;
19111;SDS011;9688;51.906;8.376;2024-02-21T08:29:16;15.23;;;5.40;;
19111;SDS011;9688;51.906;8.376;2024-02-21T08:32:01;9.07;;;4.83;;
19111;SDS011;9688;51.906;8.376;2024-02-21T08:34:46;14.83;;;5.47;;
19111;SDS011;9688;51.906;8.376;2024-02-21T08:37:31;17.77;;;5.60;;
19111;SDS011;9688;51.906;8.376;2024-02-21T08:40:17;14.53;;;5.00;;
19111;SDS011;9688;51.906;8.376;2024-02-21T08:43:04;9.53;;;4.77;;
19111;SDS011;9688;51.906;8.376;2024-02-21T08:45:51;11.27;;;4.80;;
19111;SDS011;9688;51.906;8.376;2024-02-21T08:48:36;11.17;;;5.23;;
19111;SDS011;9688;51.906;8.376;2024-02-21T08:51:22;13.83;;;4.83;;
19111;SDS011;9688;51.906;8.376;2024-02-21T08:54:07;14.60;;;5.70;;
19111;SDS011;9688;51.906;8.376;2024-02-21T08:56:54;14.93;;;5.60;;
19111;SDS011;9688;51.906;8.376;2024-02-21T08:59:40;13.13;;;4.80;;
19111;SDS011;9688;51.906;8.376;2024-02-21T09:02:27;12.37;;;4.50;;
19111;SDS011;9688;51.906;8.376;2024-02-21T09:05:12;10.20;;;4.23;;
19111;SDS011;9688;51.906;8.376;2024-02-21T09:07:57;9.77;;;4.73;;
19111;SDS011;9688;51.906;8.376;2024-02-21T09:10:42;11.90;;;4.83;;
19111;SDS011;9688;51.906;8.376;2024-02-21T09:13:28;9.17;;;4.37;;
19111;SDS011;9688;51.906;8.376;2024-02-21T09:16:13;7.67;;;4.27;;
19111;SDS011;9688;51.906;8.376;2024-02-21T09:19:00;7.57;;;3.90;;
19111;SDS011;9688;51.906;8.376;2024-02-21T09:21:45;9.10;;;4.00;;
19111;SDS011;9688;51.906;8.376;2024-02-21T09:24:31;9.63;;;4.83;;
19111;SDS011;9688;51.906;8.376;2024-02-21T09:27:16;9.97;;;4.53;;
19111;SDS011;9688;51.906;8.376;2024-02-21T09:30:01;7.80;;;4.07;;
19111;SDS011;9688;51.906;8.376;2024-02-21T09:32:48;8.60;;;3.90;;
19111;SDS011;9688;51.906;8.376;2024-02-21T09:35:35;9.87;;;4.47;;
19111;SDS011;9688;51.906;8.376;2024-02-21T09:38:20;6.33;;;4.30;;
19111;SDS011;9688;51.906;8.376;2024-02-21T09:41:08;8.43;;;4.37;;
19111;SDS011;9688;51.906;8.376;2024-02-21T09:44:00;9.90;;;4.60;;
19111;SDS011;9688;51.906;8.376;2024-02-21T09:46:48;9.77;;;4.43;;
19111;SDS011;9688;51.906;8.376;2024-02-21T09:49:39;9.60;;;4.80;;
19111;SDS011;9688;51.906;8.376;2024-02-21T09:52:26;8.43;;;4.77;;
19111;SDS011;9688;51.906;8.376;2024-02-21T09:55:13;6.53;;;4.20;;
19111;SDS011;9688;51.906;8.376;2024-02-21T09:58:00;7.13;;;4.00;;
19111;SDS011;9688;51.906;8.376;2024-02-21T10:00:47;9.37;;;4.20;;
19111;SDS011;9688;51.906;8.376;2024-02-21T10:03:32;7.70;;;4.10;;
19111;SDS011;9688;51.906;8.376;2024-02-21T10:06:18;10.70;;;5.10;;
19111;SDS011;9688;51.906;8.376;2024-02-21T10:09:05;8.10;;;4.83;;
19111;SDS011;9688;51.906;8.376;2024-02-21T10:11:51;12.23;;;5.30;;
19111;SDS011;9688;51.906;8.376;2024-02-21T10:14:36;13.23;;;5.53;;
19111;SDS011;9688;51.906;8.376;2024-02-21T10:17:22;11.80;;;5.57;;
19111;SDS011;9688;51.906;8.376;2024-02-21T10:20:07;11.10;;;5.43;;
19111;SDS011;9688;51.906;8.376;2024-02-21T10:23:00;11.73;;;6.37;;
19111;SDS011;9688;51.906;8.376;2024-02-21T10:25:48;10.77;;;5.87;;
19111;SDS011;9688;51.906;8.376;2024-02-21T10:28:35;16.33;;;6.13;;
19111;SDS011;9688;51.906;8.376;2024-02-21T10:31:26;10.23;;;6.00;;
19111;SDS011;9688;51.906;8.376;2024-02-21T10:34:12;16.60;;;6.50;;
19111;SDS011;9688;51.906;8.376;2024-02-21T10:37:03;16.13;;;7.63;;
19111;SDS011;9688;51.906;8.376;2024-02-21T10:39:48;13.93;;;6.00;;
19111;SDS011;9688;51.906;8.376;2024-02-21T10:42:39;11.97;;;5.80;;
19111;SDS011;9688;51.906;8.376;2024-02-21T10:45:29;13.37;;;6.37;;
19111;SDS011;9688;51.906;8.376;2024-02-21T10:48:20;12.43;;;6.40;;
19111;SDS011;9688;51.906;8.376;2024-02-21T10:51:17;12.37;;;5.77;;
19111;SDS011;9688;51.906;8.376;2024-02-21T10:54:09;17.20;;;7.27;;
19111;SDS011;9688;51.906;8.376;2024-02-21T10:57:07;11.93;;;6.27;;
19111;SDS011;9688;51.906;8.376;2024-02-21T10:59:56;15.20;;;6.50;;
19111;SDS011;9688;51.906;8.376;2024-02-21T11:02:44;14.93;;;6.90;;
19111;SDS011;9688;51.906;8.376;2024-02-21T11:05:29;15.67;;;7.07;;
19111;SDS011;9688;51.906;8.376;2024-02-21T11:08:17;13.20;;;6.43;;
19111;SDS011;9688;51.906;8.376;2024-02-21T11:11:03;12.63;;;6.63;;
19111;SDS011;9688;51.906;8.376;2024-02-21T11:13:50;14.10;;;6.80;;
19111;SDS011;9688;51.906;8.376;2024-02-21T11:16:37;17.00;;;6.93;;
19111;SDS011;9688;51.906;8.376;2024-02-21T11:19:24;12.23;;;6.30;;
19111;SDS011;9688;51.906;8.376;2024-02-21T11:22:14;9.90;;;5.50;;
19111;SDS011;9688;51.906;8.376;2024-02-21T11:25:06;11.73;;;5.90;;
19111;SDS011;9688;51.906;8.376;2024-02-21T11:27:58;11.50;;;6.20;;
19111;SDS011;9688;51.906;8.376;2024-02-21T11:30:44;9.27;;;5.97;;
19111;SDS011;9688;51.906;8.376;2024-02-21T11:33:32;15.27;;;5.90;;
19111;SDS011;9688;51.906;8.376;2024-02-21T11:36:23;10.60;;;5.83;;
19111;SDS011;9688;51.906;8.376;2024-02-21T11:39:09;15.27;;;6.40;;
19111;SDS011;9688;51.906;8.376;2024-02-21T11:42:01;13.93;;;6.23;;
19111;SDS011;9688;51.906;8.376;2024-02-21T11:44:47;11.43;;;5.30;;
19111;SDS011;9688;51.906;8.376;2024-02-21T11:47:33;13.87;;;6.57;;
19111;SDS011;9688;51.906;8.376;2024-02-21T11:50:20;15.70;;;6.30;;
19111;SDS011;9688;51.906;8.376;2024-02-21T11:53:05;12.70;;;6.53;;
19111;SDS011;9688;51.906;8.376;2024-02-21T11:55:51;14.43;;;5.83;;
19111;SDS011;9688;51.906;8.376;2024-02-21T11:58:40;14.47;;;5.60;;
19111;SDS011;9688;51.906;8.376;2024-02-21T12:01:27;14.40;;;6.53;;
19111;SDS011;9688;51.906;8.376;2024-02-21T12:04:12;12.30;;;5.40;;
19111;SDS011;9688;51.906;8.376;2024-02-21T12:06:59;12.67;;;5.53;;
19111;SDS011;9688;51.906;8.376;2024-02-21T12:09:47;11.37;;;5.13;;
19111;SDS011;9688;51.906;8.376;2024-02-21T12:12:32;11.10;;;5.57;;
19111;SDS011;9688;51.906;8.376;2024-02-21T12:15:21;14.00;;;5.47;;
19111;SDS011;9688;51.906;8.376;2024-02-21T12:18:06;16.33;;;6.50;;
19111;SDS011;9688;51.906;8.376;2024-02-21T12:20:52;13.93;;;7.03;;
19111;SDS011;9688;51.906;8.376;2024-02-21T12:23:39;14.07;;;6.67;;
19111;SDS011;9688;51.906;8.376;2024-02-21T12:26:25;14.70;;;6.40;;
19111;SDS011;9688;51.906;8.376;2024-02-21T12:29:10;15.23;;;5.77;;
19111;SDS011;9688;51.906;8.376;2024-02-21T12:31:56;19.00;;;6.20;;
19111;SDS011;9688;51.906;8.376;2024-02-21T12:34:41;17.87;;;6.60;;
19111;SDS011;9688;51.906;8.376;2024-02-21T12:37:26;12.97;;;5.70;;
19111;SDS011;9688;51.906;8.376;2024-02-21T12:40:13;15.73;;;5.67;;
19111;SDS011;9688;51.906;8.376;2024-02-21T12:42:58;14.00;;;5.73;;
19111;SDS011;9688;51.906;8.376;2024-02-21T12:45:46;14.77;;;5.97;;
19111;SDS011;9688;51.906;8.376;2024-02-21T12:48:32;13.70;;;5.10;;
19111;SDS011;9688;51.906;8.376;2024-02-21T12:51:17;13.50;;;5.53;;
19111;SDS011;9688;51.906;8.376;2024-02-21T12:54:04;16.53;;;5.63;;
19111;SDS011;9688;51.906;8.376;2024-02-21T12:56:51;14.50;;;5.07;;
19111;SDS011;9688;51.906;8.376;2024-02-21T12:59:36;17.60;;;6.00;;
19111;SDS011;9688;51.906;8.376;2024-02-21T13:02:22;12.97;;;5.80;;
19111;SDS011;9688;51.906;8.376;2024-02-21T13:05:07;9.77;;;5.20;;
19111;SDS011;9688;51.906;8.376;2024-02-21T13:07:53;13.57;;;5.10;;
19111;SDS011;9688;51.906;8.376;2024-02-21T13:10:39;9.63;;;4.57;;
19111;SDS011;9688;51.906;8.376;2024-02-21T13:13:26;12.50;;;5.80;;
19111;SDS011;9688;51.906;8.376;2024-02-21T13:16:12;14.17;;;4.97;;
19111;SDS011;9688;51.906;8.376;2024-02-21T13:18:57;12.00;;;5.00;;
19111;SDS011;9688;51.906;8.376;2024-02-21T13:21:42;9.47;;;4.50;;
19111;SDS011;9688;51.906;8.376;2024-02-21T13:24:29;8.10;;;3.77;;
19111;SDS011;9688;51.906;8.376;2024-02-21T13:27:14;12.07;;;3.97;;
19111;SDS011;9688;51.906;8.376;2024-02-21T13:30:01;10.60;;;3.83;;
19111;SDS011;9688;51.906;8.376;2024-02-21T13:32:49;13.20;;;3.87;;
19111;SDS011;9688;51.906;8.376;2024-02-21T13:35:34;8.80;;;3.50;;
19111;SDS011;9688;51.906;8.376;2024-02-21T13:38:20;8.23;;;3.60;;
19111;SDS011;9688;51.906;8.376;2024-02-21T13:41:08;8.97;;;3.50;;
19111;SDS011;9688;51.906;8.376;2024-02-21T13:43:53;10.77;;;4.50;;
19111;SDS011;9688;51.906;8.376;2024-02-21T13:46:39;11.43;;;3.90;;
19111;SDS011;9688;51.906;8.376;2024-02-21T13:49:24;6.50;;;3.40;;
19111;SDS011;9688;51.906;8.376;2024-02-21T13:52:10;8.80;;;3.23;;
19111;SDS011;9688;51.906;8.376;2024-02-21T13:54:55;7.73;;;3.67;;
19111;SDS011;9688;51.906;8.376;2024-02-21T13:57:40;10.80;;;4.10;;
19111;SDS011;9688;51.906;8.376;2024-02-21T14:00:26;12.63;;;4.33;;
19111;SDS011;9688;51.906;8.376;2024-02-21T14:03:13;7.70;;;3.67;;
19111;SDS011;9688;51.906;8.376;2024-02-21T14:05:58;9.87;;;3.63;;
19111;SDS011;9688;51.906;8.376;2024-02-21T14:08:44;9.97;;;3.30;;
19111;SDS011;9688;51.906;8.376;2024-02-21T14:11:29;7.90;;;3.77;;
19111;SDS011;9688;51.906;8.376;2024-02-21T14:14:15;9.77;;;3.50;;
19111;SDS011;9688;51.906;8.376;2024-02-21T14:17:00;7.73;;;3.43;;
19111;SDS011;9688;51.906;8.376;2024-02-21T14:19:47;9.83;;;3.77;;
19111;SDS011;9688;51.906;8.376;2024-02-21T14:22:33;11.77;;;3.80;;
19111;SDS011;9688;51.906;8.376;2024-02-21T14:25:18;7.30;;;3.00;;
19111;SDS011;9688;51.906;8.376;2024-02-21T14:28:04;10.27;;;4.00;;
19111;SDS011;9688;51.906;8.376;2024-02-21T14:30:49;9.40;;;3.03;;
19111;SDS011;9688;51.906;8.376;2024-02-21T14:33:37;8.30;;;3.23;;
19111;SDS011;9688;51.906;8.376;2024-02-21T14:36:25;9.90;;;3.50;;
19111;SDS011;9688;51.906;8.376;2024-02-21T14:39:11;9.40;;;3.23;;
19111;SDS011;9688;51.906;8.376;2024-02-21T14:41:56;6.20;;;2.87;;
19111;SDS011;9688;51.906;8.376;2024-02-21T14:44:43;9.00;;;3.00;;
19111;SDS011;9688;51.906;8.376;2024-02-21T14:47:29;10.80;;;3.20;;
19111;SDS011;9688;51.906;8.376;2024-02-21T14:50:15;9.80;;;3.47;;
19111;SDS011;9688;51.906;8.376;2024-02-21T14:53:03;7.00;;;3.20;;
19111;SDS011;9688;51.906;8.376;2024-02-21T14:55:48;8.37;;;3.07;;
19111;SDS011;9688;51.906;8.376;2024-02-21T14:58:34;5.77;;;3.03;;
19111;SDS011;9688;51.906;8.376;2024-02-21T15:01:19;8.67;;;3.33;;
19111;SDS011;9688;51.906;8.376;2024-02-21T15:04:05;9.57;;;3.10;;
19111;SDS011;9688;51.906;8.376;2024-02-21T15:06:51;8.53;;;3.40;;
19111;SDS011;9688;51.906;8.376;2024-02-21T15:09:37;8.07;;;3.40;;
19111;SDS011;9688;51.906;8.376;2024-02-21T15:12:22;6.10;;;3.40;;
19111;SDS011;9688;51.906;8.376;2024-02-21T15:15:08;8.73;;;3.90;;
19111;SDS011;9688;51.906;8.376;2024-02-21T15:17:53;6.93;;;3.43;;
19111;SDS011;9688;51.906;8.376;2024-02-21T15:20:39;9.83;;;3.90;;
19111;SDS011;9688;51.906;8.376;2024-02-21T15:23:24;9.73;;;3.63;;
19111;SDS011;9688;51.906;8.376;2024-02-21T15:26:11;6.37;;;3.40;;
19111;SDS011;9688;51.906;8.376;2024-02-21T15:28:57;7.47;;;3.60;;
19111;SDS011;9688;51.906;8.376;2024-02-21T15:31:42;7.70;;;3.70;;
19111;SDS011;9688;51.906;8.376;2024-02-21T15:34:30;8.90;;;3.80;;
19111;SDS011;9688;51.906;8.376;2024-02-21T15:37:16;7.17;;;3.80;;
19111;SDS011;9688;51.906;8.376;2024-02-21T15:40:01;12.97;;;4.00;;
19111;SDS011;9688;51.906;8.376;2024-02-21T15:42:48;6.97;;;3.87;;
19111;SDS011;9688;51.906;8.376;2024-02-21T15:45:34;10.67;;;4.00;;
19111;SDS011;9688;51.906;8.376;2024-02-21T15:48:19;6.27;;;2.97;;
19111;SDS011;9688;51.906;8.376;2024-02-21T15:51:06;10.67;;;3.40;;
19111;SDS011;9688;51.906;8.376;2024-02-21T15:53:52;10.13;;;3.97;;
19111;SDS011;9688;51.906;8.376;2024-02-21T15:56:40;7.37;;;3.53;;
19111;SDS011;9688;51.906;8.376;2024-02-21T15:59:27;7.27;;;3.20;;
19111;SDS011;9688;51.906;8.376;2024-02-21T16:02:15;6.03;;;3.40;;
19111;SDS011;9688;51.906;8.376;2024-02-21T16:05:00;9.77;;;3.67;;
19111;SDS011;9688;51.906;8.376;2024-02-21T16:07:46;6.50;;;3.10;;
19111;SDS011;9688;51.906;8.376;2024-02-21T16:10:31;6.43;;;3.07;;
19111;SDS011;9688;51.906;8.376;2024-02-21T16:13:16;10.07;;;3.27;;
19111;SDS011;9688;51.906;8.376;2024-02-21T16:16:03;5.43;;;3.33;;
19111;SDS011;9688;51.906;8.376;2024-02-21T16:18:49;7.40;;;3.30;;
19111;SDS011;9688;51.906;8.376;2024-02-21T16:21:35;8.87;;;3.33;;
19111;SDS011;9688;51.906;8.376;2024-02-21T16:24:20;10.47;;;3.63;;
19111;SDS011;9688;51.906;8.376;2024-02-21T16:27:06;9.63;;;4.07;;
19111;SDS011;9688;51.906;8.376;2024-02-21T16:29:53;10.07;;;3.60;;
19111;SDS011;9688;51.906;8.376;2024-02-21T16:32:39;7.70;;;3.97;;
19111;SDS011;9688;51.906;8.376;2024-02-21T16:35:26;5.67;;;3.43;;
19111;SDS011;9688;51.906;8.376;2024-02-21T16:38:12;5.83;;;3.17;;